createdAt,value
2019-01-15T00:01:50.316Z,2.53
2019-01-15T00:07:08.777Z,2.70
2019-01-15T00:12:25.729Z,2.80
2019-01-15T00:17:41.970Z,2.37
2019-01-15T00:22:57.645Z,2.90
2019-01-15T00:28:14.193Z,2.80
2019-01-15T00:33:29.734Z,2.77
2019-01-15T00:38:45.018Z,2.77
2019-01-15T00:44:00.760Z,3.00
2019-01-15T00:49:16.366Z,2.40
2019-01-15T00:54:32.517Z,2.50
2019-01-15T00:59:48.117Z,2.77
2019-01-15T01:05:03.511Z,2.80
2019-01-15T01:10:19.233Z,2.40
2019-01-15T01:15:36.759Z,2.90
2019-01-15T01:20:52.407Z,3.10
2019-01-15T01:26:08.444Z,3.60
2019-01-15T01:31:24.212Z,3.30
2019-01-15T01:36:39.432Z,3.40
2019-01-15T01:41:55.457Z,3.50
2019-01-15T01:47:11.541Z,3.70
2019-01-15T01:52:26.810Z,4.30
2019-01-15T01:57:42.324Z,3.77
2019-01-15T02:02:58.462Z,4.20
2019-01-15T02:08:13.888Z,4.30
2019-01-15T02:13:29.417Z,5.03
2019-01-15T02:18:44.895Z,4.10
2019-01-15T02:24:01.044Z,3.87
2019-01-15T02:29:17.005Z,4.30
2019-01-15T02:34:32.649Z,4.57
2019-01-15T02:39:48.134Z,4.13
2019-01-15T02:45:03.886Z,4.63
2019-01-15T02:50:19.980Z,4.70
2019-01-15T02:55:35.904Z,4.77
2019-01-15T03:00:51.273Z,5.27
2019-01-15T03:06:07.128Z,3.90
2019-01-15T03:11:22.852Z,3.87
2019-01-15T03:16:38.821Z,4.73
2019-01-15T03:21:55.193Z,5.13
2019-01-15T03:27:11.330Z,4.80
2019-01-15T03:32:27.059Z,5.03
2019-01-15T03:37:42.544Z,5.93
2019-01-15T03:43:03.555Z,5.93
2019-01-15T03:48:16.866Z,7.10
2019-01-15T03:53:32.177Z,8.47
2019-01-15T03:58:47.416Z,7.70
2019-01-15T04:04:04.898Z,8.20
2019-01-15T04:09:20.829Z,7.70
2019-01-15T04:14:36.948Z,8.27
2019-01-15T04:19:52.546Z,6.50
2019-01-15T04:25:08.855Z,6.70
2019-01-15T04:30:24.973Z,6.13
2019-01-15T04:35:40.849Z,6.67
2019-01-15T04:40:56.261Z,6.37
2019-01-15T04:46:11.599Z,6.07
2019-01-15T04:51:29.113Z,6.47
2019-01-15T04:56:45.346Z,7.53
2019-01-15T05:02:00.825Z,6.63
2019-01-15T05:07:16.273Z,7.20
2019-01-15T05:12:32.028Z,6.27
2019-01-15T05:17:47.938Z,6.10
2019-01-15T05:23:04.095Z,6.30
2019-01-15T05:28:20.005Z,6.47
2019-01-15T05:33:35.881Z,5.83
2019-01-15T05:38:51.429Z,5.70
2019-01-15T05:44:07.340Z,5.60
2019-01-15T05:49:22.719Z,5.60
2019-01-15T05:54:38.377Z,4.37
2019-01-15T05:59:54.559Z,5.70
2019-01-15T06:05:10.705Z,6.47
2019-01-15T06:10:26.182Z,7.10
2019-01-15T06:15:41.648Z,7.50
2019-01-15T06:21:00.634Z,6.20
2019-01-15T06:26:16.717Z,7.70
2019-01-15T06:31:32.349Z,8.57
2019-01-15T06:36:48.045Z,6.07
2019-01-15T06:42:04.150Z,8.03
2019-01-15T06:47:19.594Z,8.37
2019-01-15T06:52:35.062Z,8.47
2019-01-15T06:57:50.913Z,8.93
2019-01-15T07:03:06.314Z,8.20
2019-01-15T07:08:21.973Z,7.10
2019-01-15T07:13:37.867Z,8.10
2019-01-15T07:18:53.561Z,8.17
2019-01-15T07:24:09.005Z,7.10
2019-01-15T07:29:24.625Z,7.17
2019-01-15T07:34:41.077Z,7.10
2019-01-15T07:39:56.642Z,8.20
2019-01-15T07:45:12.314Z,8.70
2019-01-15T07:50:28.023Z,9.17
2019-01-15T07:55:43.457Z,8.83
2019-01-15T08:00:59.264Z,9.60
2019-01-15T08:06:14.921Z,10.90
2019-01-15T08:11:31.078Z,10.43
2019-01-15T08:16:46.760Z,10.47
2019-01-15T08:22:02.642Z,9.77
2019-01-15T08:27:18.214Z,10.50
2019-01-15T08:32:33.725Z,10.07
2019-01-15T08:37:49.077Z,10.13
2019-01-15T08:43:04.730Z,9.13
2019-01-15T08:48:22.070Z,9.53
2019-01-15T08:53:38.593Z,9.57
2019-01-15T08:58:54.985Z,9.77
2019-01-15T09:04:11.071Z,7.83
2019-01-15T09:09:26.827Z,10.30
2019-01-15T09:14:42.208Z,11.83
2019-01-15T09:19:57.652Z,10.37
2019-01-15T09:25:13.686Z,10.27
2019-01-15T09:30:30.894Z,9.73
2019-01-15T09:35:49.458Z,11.83
2019-01-15T09:41:04.964Z,11.43
2019-01-15T09:46:21.116Z,10.93
2019-01-15T09:51:37.485Z,12.80
2019-01-15T09:56:53.953Z,12.93
2019-01-15T10:02:10.877Z,14.70
2019-01-15T10:07:29.400Z,13.13
2019-01-15T10:12:46.529Z,11.73
2019-01-15T10:17:49.954Z,12.53
2019-01-15T10:23:12.790Z,13.43
2019-01-15T10:28:35.600Z,12.33
2019-01-15T10:33:51.646Z,12.40
2019-01-15T10:39:08.362Z,10.33
2019-01-15T10:44:24.367Z,8.90
2019-01-15T10:49:43.307Z,10.63
2019-01-15T10:54:59.664Z,11.10
2019-01-15T11:00:15.667Z,9.67
2019-01-15T11:05:31.764Z,10.20
2019-01-15T11:10:48.150Z,8.87
2019-01-15T11:16:04.306Z,9.70
2019-01-15T11:21:19.922Z,8.80
2019-01-15T11:26:35.237Z,10.13
2019-01-15T11:31:51.029Z,9.43
2019-01-15T11:37:06.544Z,9.07
2019-01-15T11:42:23.268Z,9.20
2019-01-15T11:47:38.922Z,8.73
2019-01-15T11:52:54.712Z,8.80
2019-01-15T11:58:10.349Z,7.97
2019-01-15T12:03:45.383Z,7.90
2019-01-15T12:09:20.237Z,7.37
2019-01-15T12:14:37.467Z,6.83
2019-01-15T12:19:56.245Z,6.50
2019-01-15T12:25:30.690Z,6.50
2019-01-15T12:31:05.366Z,6.43
2019-01-15T12:36:23.673Z,5.67
2019-01-15T12:42:25.685Z,5.30
2019-01-15T12:48:07.634Z,5.73
2019-01-15T12:53:51.126Z,5.53
2019-01-15T13:10:37.153Z,4.80
2019-01-15T13:16:19.333Z,4.50
2019-01-15T13:22:21.317Z,4.50
2019-01-15T13:28:03.504Z,4.50
2019-01-15T13:39:09.728Z,3.20
2019-01-15T13:44:47.601Z,3.97
2019-01-15T14:06:33.029Z,3.60
2019-01-15T14:11:50.681Z,3.43
2019-01-15T14:17:08.306Z,3.03
2019-01-15T14:22:25.694Z,3.37
2019-01-15T14:28:03.225Z,3.27
2019-01-15T14:33:49.734Z,3.40
2019-01-15T14:39:24.727Z,3.07
2019-01-15T14:50:29.133Z,3.40
2019-01-15T14:55:46.622Z,3.97
2019-01-15T15:01:03.679Z,3.20
2019-01-15T15:06:39.018Z,3.17
2019-01-15T15:12:13.886Z,2.97
2019-01-15T15:17:31.728Z,3.57
2019-01-15T15:22:49.429Z,2.30
2019-01-15T15:28:24.325Z,3.43
2019-01-15T15:39:27.961Z,3.57
2019-01-15T15:44:45.717Z,3.43
2019-01-15T15:50:02.958Z,3.50
2019-01-15T16:00:49.586Z,2.90
2019-01-15T16:06:09.664Z,3.40
2019-01-15T16:11:44.078Z,2.97
2019-01-15T16:22:31.222Z,3.47
2019-01-15T16:27:51.538Z,3.83
2019-01-15T16:33:26.513Z,3.50
2019-01-15T16:38:43.857Z,3.77
2019-01-15T16:44:04.413Z,3.93
2019-01-15T16:49:39.083Z,3.77
2019-01-15T16:55:14.666Z,4.10
2019-01-15T17:06:18.217Z,3.80
2019-01-15T17:11:54.051Z,3.93
2019-01-15T17:17:11.396Z,3.80
2019-01-15T17:22:28.909Z,4.03
2019-01-15T17:28:04.052Z,3.87
2019-01-15T17:33:24.685Z,4.47
2019-01-15T17:38:59.613Z,4.10
2019-01-15T17:44:34.796Z,4.53
2019-01-15T17:50:10.090Z,5.50
2019-01-15T17:55:46.682Z,5.80
2019-01-15T18:01:21.819Z,5.20
2019-01-15T18:06:57.270Z,6.60
2019-01-15T18:12:14.931Z,6.63
2019-01-15T18:17:35.774Z,6.70
2019-01-15T18:28:39.329Z,6.43
2019-01-15T18:33:56.137Z,6.60
2019-01-15T18:39:13.317Z,6.20
2019-01-15T18:44:33.976Z,6.87
2019-01-15T18:50:09.079Z,6.17
2019-01-15T18:55:27.157Z,7.17
2019-01-15T19:01:02.678Z,6.30
2019-01-15T19:17:35.233Z,6.33
2019-01-15T19:22:55.865Z,6.77
2019-01-15T19:28:13.292Z,5.60
2019-01-15T19:33:32.809Z,5.83
2019-01-15T19:44:37.306Z,5.63
2019-01-15T19:50:11.951Z,5.30
2019-01-15T20:01:00.832Z,5.67
2019-01-15T20:06:18.693Z,5.13
2019-01-15T20:17:04.597Z,5.40
2019-01-15T20:22:21.632Z,5.30
2019-01-15T20:27:41.381Z,5.10
2019-01-15T20:33:02.205Z,5.23
2019-01-15T20:38:37.449Z,5.27
2019-01-15T20:44:11.918Z,5.97
2019-01-15T20:49:46.573Z,4.93
2019-01-15T20:55:21.488Z,5.23
2019-01-15T21:00:56.366Z,5.10
2019-01-15T21:06:31.238Z,5.47
2019-01-15T21:11:48.840Z,5.00
2019-01-15T21:22:52.610Z,4.83
2019-01-15T21:28:27.915Z,5.50
2019-01-15T21:33:45.238Z,5.03
2019-01-15T21:39:20.533Z,5.00
2019-01-15T21:44:41.086Z,4.90
2019-01-15T21:50:16.337Z,5.07
2019-01-15T21:55:36.911Z,5.50
2019-01-15T22:06:22.878Z,5.57
2019-01-15T22:11:43.353Z,5.40
2019-01-15T22:17:17.870Z,5.67
2019-01-15T22:22:35.432Z,4.50
2019-01-15T22:27:55.449Z,4.57
2019-01-15T22:33:15.882Z,4.97
2019-01-15T22:44:06.042Z,5.57
2019-01-15T22:49:41.155Z,6.43
2019-01-15T22:55:01.617Z,5.63
2019-01-15T23:06:05.501Z,5.20
2019-01-15T23:11:25.942Z,5.43
2019-01-15T23:17:00.520Z,5.80
2019-01-15T23:22:35.331Z,5.90
2019-01-15T23:28:10.625Z,6.50
2019-01-15T23:33:45.490Z,7.63
2019-01-15T23:44:31.602Z,6.87
2019-01-15T23:55:19.456Z,7.13
